sensor_id;sensor_type;location;lat;lon;timestamp;pressure;altitude;pressure_sealevel;temperature;humidity
47710;BME280;33473;51.640;5.892;2023-03-03T00:00:37;102300;;;5.5;59.0
47710;BME280;33473;51.640;5.892;2023-03-03T00:13:57;102300;;;5.2;59.0
47710;BME280;33473;51.640;5.892;2023-03-03T00:27:16;102300;;;5.6;58.0
47710;BME280;33473;51.640;5.892;2023-03-03T00:40:36;102300;;;6.0;57.0
47710;BME280;33473;51.640;5.892;2023-03-03T00:53:56;102300;;;5.8;58.0
47710;BME280;33473;51.640;5.892;2023-03-03T01:07:15;102300;;;6.3;56.0
47710;BME280;33473;51.640;5.892;2023-03-03T01:20:35;102300;;;5.4;57.0
47710;BME280;33473;51.640;5.892;2023-03-03T01:33:55;102300;;;5.9;56.0
47710;BME280;33473;51.640;5.892;2023-03-03T01:47:15;102300;;;5.9;56.0
47710;BME280;33473;51.640;5.892;2023-03-03T02:00:34;102300;;;5.6;57.0
47710;BME280;33473;51.640;5.892;2023-03-03T02:13:54;102300;;;5.4;57.0
47710;BME280;33473;51.640;5.892;2023-03-03T02:27:14;102300;;;5.5;57.0
47710;BME280;33473;51.640;5.892;2023-03-03T02:40:33;102300;;;5.5;57.0
47710;BME280;33473;51.640;5.892;2023-03-03T02:53:53;102300;;;5.8;56.0
47710;BME280;33473;51.640;5.892;2023-03-03T03:07:12;102300;;;6.0;56.0
47710;BME280;33473;51.640;5.892;2023-03-03T03:20:32;102300;;;5.6;57.0
47710;BME280;33473;51.640;5.892;2023-03-03T03:33:52;102300;;;5.4;57.0
47710;BME280;33473;51.640;5.892;2023-03-03T03:47:11;102300;;;5.4;58.0
47710;BME280;33473;51.640;5.892;2023-03-03T04:00:31;102300;;;5.8;57.0
47710;BME280;33473;51.640;5.892;2023-03-03T04:13:51;102300;;;5.5;57.0
47710;BME280;33473;51.640;5.892;2023-03-03T04:27:10;102400;;;5.8;56.0
47710;BME280;33473;51.640;5.892;2023-03-03T04:40:30;102300;;;6.1;56.0
47710;BME280;33473;51.640;5.892;2023-03-03T04:53:50;102300;;;6.5;54.0
47710;BME280;33473;51.640;5.892;2023-03-03T05:07:09;102400;;;6.6;54.0
47710;BME280;33473;51.640;5.892;2023-03-03T05:20:29;102400;;;6.8;54.0
47710;BME280;33473;51.640;5.892;2023-03-03T05:33:49;102400;;;6.8;54.0
47710;BME280;33473;51.640;5.892;2023-03-03T05:47:08;102400;;;6.9;54.0
47710;BME280;33473;51.640;5.892;2023-03-03T06:00:28;102400;;;6.8;54.0
47710;BME280;33473;51.640;5.892;2023-03-03T06:13:48;102400;;;6.6;54.0
47710;BME280;33473;51.640;5.892;2023-03-03T06:27:07;102400;;;6.8;54.0
47710;BME280;33473;51.640;5.892;2023-03-03T06:40:27;102400;;;6.7;54.0
47710;BME280;33473;51.640;5.892;2023-03-03T06:53:47;102400;;;7.3;53.0
47710;BME280;33473;51.640;5.892;2023-03-03T07:07:06;102400;;;7.5;52.0
47710;BME280;33473;51.640;5.892;2023-03-03T07:20:26;102400;;;7.7;52.0
47710;BME280;33473;51.640;5.892;2023-03-03T07:33:46;102500;;;7.4;53.0
47710;BME280;33473;51.640;5.892;2023-03-03T07:47:05;102500;;;8.0;52.0
47710;BME280;33473;51.640;5.892;2023-03-03T08:00:25;102500;;;7.9;51.0
47710;BME280;33473;51.640;5.892;2023-03-03T08:13:45;102500;;;8.5;51.0
47710;BME280;33473;51.640;5.892;2023-03-03T08:27:04;102500;;;7.6;54.0
47710;BME280;33473;51.640;5.892;2023-03-03T08:40:24;102500;;;8.0;53.0
47710;BME280;33473;51.640;5.892;2023-03-03T08:53:44;102500;;;8.0;52.0
47710;BME280;33473;51.640;5.892;2023-03-03T09:07:03;102500;;;7.6;53.0
47710;BME280;33473;51.640;5.892;2023-03-03T09:20:23;102500;;;7.6;54.0
47710;BME280;33473;51.640;5.892;2023-03-03T09:33:43;102500;;;8.3;52.0
47710;BME280;33473;51.640;5.892;2023-03-03T09:47:02;102500;;;8.8;50.0
47710;BME280;33473;51.640;5.892;2023-03-03T10:00:22;102500;;;9.7;48.0
47710;BME280;33473;51.640;5.892;2023-03-03T10:13:42;102600;;;9.1;50.0
47710;BME280;33473;51.640;5.892;2023-03-03T10:27:01;102500;;;8.5;50.0
47710;BME280;33473;51.640;5.892;2023-03-03T10:40:21;102500;;;8.9;51.0
47710;BME280;33473;51.640;5.892;2023-03-03T10:53:41;102600;;;9.6;49.0
47710;BME280;33473;51.640;5.892;2023-03-03T11:07:00;102500;;;9.9;49.0
47710;BME280;33473;51.640;5.892;2023-03-03T11:20:20;102500;;;9.9;48.0
47710;BME280;33473;51.640;5.892;2023-03-03T11:33:40;102500;;;10.9;45.0
47710;BME280;33473;51.640;5.892;2023-03-03T11:46:59;102500;;;12.1;42.0
47710;BME280;33473;51.640;5.892;2023-03-03T12:00:19;102500;;;13.8;39.0
47710;BME280;33473;51.640;5.892;2023-03-03T12:13:39;102500;;;13.7;39.0
47710;BME280;33473;51.640;5.892;2023-03-03T12:26:59;102500;;;14.6;38.0
47710;BME280;33473;51.640;5.892;2023-03-03T12:40:18;102500;;;13.0;41.0
47710;BME280;33473;51.640;5.892;2023-03-03T12:53:38;102500;;;11.6;45.0
47710;BME280;33473;51.640;5.892;2023-03-03T13:06:58;102500;;;12.1;43.0
47710;BME280;33473;51.640;5.892;2023-03-03T13:20:17;102500;;;12.0;43.0
47710;BME280;33473;51.640;5.892;2023-03-03T13:33:37;102500;;;12.9;41.0
47710;BME280;33473;51.640;5.892;2023-03-03T13:46:57;102500;;;12.2;40.0
47710;BME280;33473;51.640;5.892;2023-03-03T14:00:16;102400;;;13.4;39.0
47710;BME280;33473;51.640;5.892;2023-03-03T14:13:36;102400;;;13.3;39.0
47710;BME280;33473;51.640;5.892;2023-03-03T14:26:56;102400;;;13.7;39.0
47710;BME280;33473;51.640;5.892;2023-03-03T14:40:15;102400;;;14.0;37.0
47710;BME280;33473;51.640;5.892;2023-03-03T14:53:35;102400;;;13.8;37.0
47710;BME280;33473;51.640;5.892;2023-03-03T15:06:55;102400;;;13.6;39.0
47710;BME280;33473;51.640;5.892;2023-03-03T15:20:14;102400;;;12.6;40.0
47710;BME280;33473;51.640;5.892;2023-03-03T15:33:34;102400;;;12.8;39.0
47710;BME280;33473;51.640;5.892;2023-03-03T15:46:54;102300;;;13.4;39.0
47710;BME280;33473;51.640;5.892;2023-03-03T16:00:13;102300;;;13.2;38.0
47710;BME280;33473;51.640;5.892;2023-03-03T16:13:33;102300;;;13.6;38.0
47710;BME280;33473;51.640;5.892;2023-03-03T16:26:53;102300;;;13.6;38.0
47710;BME280;33473;51.640;5.892;2023-03-03T16:40:12;102300;;;13.4;39.0
47710;BME280;33473;51.640;5.892;2023-03-03T16:53:32;102400;;;12.9;40.0
47710;BME280;33473;51.640;5.892;2023-03-03T17:06:52;102400;;;11.5;45.0
47710;BME280;33473;51.640;5.892;2023-03-03T17:20:11;102400;;;10.4;46.0
47710;BME280;33473;51.640;5.892;2023-03-03T17:33:31;102400;;;10.4;46.0
47710;BME280;33473;51.640;5.892;2023-03-03T17:46:51;102400;;;10.4;45.0
47710;BME280;33473;51.640;5.892;2023-03-03T18:00:10;102400;;;10.2;45.0
47710;BME280;33473;51.640;5.892;2023-03-03T18:13:30;102400;;;10.4;46.0
47710;BME280;33473;51.640;5.892;2023-03-03T18:26:50;102500;;;9.7;47.0
47710;BME280;33473;51.640;5.892;2023-03-03T18:40:09;102500;;;9.3;48.0
47710;BME280;33473;51.640;5.892;2023-03-03T18:53:29;102500;;;9.4;47.0
47710;BME280;33473;51.640;5.892;2023-03-03T19:06:49;102500;;;9.2;47.0
47710;BME280;33473;51.640;5.892;2023-03-03T19:20:08;102500;;;9.5;47.0
47710;BME280;33473;51.640;5.892;2023-03-03T19:33:28;102500;;;9.4;47.0
47710;BME280;33473;51.640;5.892;2023-03-03T19:46:48;102500;;;9.8;45.0
47710;BME280;33473;51.640;5.892;2023-03-03T20:00:07;102500;;;9.6;45.0
47710;BME280;33473;51.640;5.892;2023-03-03T20:13:27;102500;;;9.8;46.0
47710;BME280;33473;51.640;5.892;2023-03-03T20:26:47;102500;;;9.9;46.0
47710;BME280;33473;51.640;5.892;2023-03-03T20:40:06;102500;;;9.6;46.0
47710;BME280;33473;51.640;5.892;2023-03-03T20:53:26;102500;;;9.1;48.0
47710;BME280;33473;51.640;5.892;2023-03-03T21:06:46;102500;;;9.6;47.0
47710;BME280;33473;51.640;5.892;2023-03-03T21:20:05;102500;;;9.6;48.0
47710;BME280;33473;51.640;5.892;2023-03-03T21:33:25;102500;;;10.2;46.0
47710;BME280;33473;51.640;5.892;2023-03-03T21:46:45;102500;;;10.4;46.0
47710;BME280;33473;51.640;5.892;2023-03-03T22:00:04;102500;;;10.3;46.0
47710;BME280;33473;51.640;5.892;2023-03-03T22:13:24;102500;;;10.2;47.0
47710;BME280;33473;51.640;5.892;2023-03-03T22:26:44;102500;;;9.9;47.0
47710;BME280;33473;51.640;5.892;2023-03-03T22:40:03;102500;;;10.6;46.0
47710;BME280;33473;51.640;5.892;2023-03-03T22:53:23;102500;;;10.6;46.0
47710;BME280;33473;51.640;5.892;2023-03-03T23:06:43;102500;;;10.4;47.0
47710;BME280;33473;51.640;5.892;2023-03-03T23:20:02;102500;;;10.7;46.0
47710;BME280;33473;51.640;5.892;2023-03-03T23:33:22;102500;;;9.9;48.0
47710;BME280;33473;51.640;5.892;2023-03-03T23:46:42;102500;;;10.7;46.0
